Time;durP1;ratioP1;P1;durP2;ratioP2;P2;SDS_P1;SDS_P2;PMS_P1;PMS_P2;Temp;Humidity;BMP_temperature;BMP_pressure;BME280_temperature;BME280_humidity;BME280_pressure;Samples;Min_cycle;Max_cycle;Signal;HPM_P1;HPM_P2
2022/08/23 00:00:36;;;;;;;3.08;2.10;;;24.40;99.90;;;;;;4177975;28;20223;-75
2022/08/23 00:02:38;;;;;;;4.88;2.30;;;24.40;99.90;;;;;;4178052;28;20235;-75
2022/08/23 00:04:42;;;;;;;3.60;2.17;;;24.40;99.90;;;;;;4177733;28;20239;-75
2022/08/23 00:06:47;;;;;;;3.55;2.00;;;24.40;99.90;;;;;;4174457;28;20270;-75
2022/08/23 00:08:50;;;;;;;3.67;2.25;;;24.40;99.90;;;;;;4178040;28;20216;-75
2022/08/23 00:10:52;;;;;;;4.38;2.35;;;24.50;99.90;;;;;;4183264;28;20233;-75
2022/08/23 00:12:55;;;;;;;3.35;1.92;;;24.40;99.90;;;;;;4172613;28;20262;-75
2022/08/23 00:14:58;;;;;;;3.85;2.20;;;24.50;99.90;;;;;;4174247;28;20258;-74
2022/08/23 00:17:00;;;;;;;3.67;1.98;;;24.40;99.90;;;;;;4178193;28;20686;-75
2022/08/23 00:19:03;;;;;;;3.10;2.00;;;24.40;99.90;;;;;;4177727;28;20607;-75
2022/08/23 00:21:05;;;;;;;3.90;2.08;;;24.40;99.90;;;;;;4177389;28;20224;-75
2022/08/23 00:23:08;;;;;;;4.78;2.33;;;24.40;99.90;;;;;;4176634;28;20664;-75
2022/08/23 00:25:12;;;;;;;3.72;2.40;;;24.40;99.90;;;;;;4177903;28;20215;-75
2022/08/23 00:27:17;;;;;;;2.25;2.00;;;24.40;99.90;;;;;;4177944;28;20911;-75
2022/08/23 00:29:21;;;;;;;3.03;2.20;;;24.40;99.90;;;;;;4165060;28;20216;-75
2022/08/23 00:31:24;;;;;;;3.97;2.00;;;24.40;99.90;;;;;;4171569;28;20220;-75
2022/08/23 00:33:26;;;;;;;3.08;1.98;;;24.40;99.90;;;;;;4178121;28;20223;-75
2022/08/23 00:35:28;;;;;;;3.28;2.20;;;24.40;99.90;;;;;;4177682;28;20656;-75
2022/08/23 00:37:31;;;;;;;2.75;2.10;;;24.40;99.90;;;;;;4178203;28;20591;-75
2022/08/23 00:39:34;;;;;;;3.33;2.15;;;24.40;99.90;;;;;;4181043;28;20274;-75
2022/08/23 00:41:37;;;;;;;4.47;2.17;;;24.40;99.90;;;;;;4171465;28;20672;-75
2022/08/23 00:48:30;;;;;;;4.13;2.25;;;24.40;99.90;;;;;;4181231;28;20233;-74
2022/08/23 00:50:37;;;;;;;4.18;2.03;;;24.40;99.90;;;;;;4181174;28;20215;-75
2022/08/23 00:52:50;;;;;;;4.50;2.30;;;24.40;99.90;;;;;;4181144;28;20285;-75
2022/08/23 00:54:54;;;;;;;3.47;2.20;;;24.40;99.90;;;;;;4180739;28;20273;-75
2022/08/23 00:56:59;;;;;;;2.95;1.80;;;24.40;99.90;;;;;;4179654;28;20282;-75
2022/08/23 00:59:02;;;;;;;3.60;2.22;;;24.40;99.90;;;;;;4180668;28;20231;-75
2022/08/23 01:01:07;;;;;;;2.67;1.60;;;24.40;99.90;;;;;;4180566;28;20293;-75
2022/08/23 01:03:11;;;;;;;4.28;2.10;;;24.40;99.90;;;;;;4180457;28;20265;-75
2022/08/23 01:05:14;;;;;;;4.28;2.20;;;24.40;99.90;;;;;;4175737;28;20297;-75
2022/08/23 01:07:25;;;;;;;3.83;2.45;;;24.40;99.90;;;;;;4167718;28;20663;-75
2022/08/23 01:09:27;;;;;;;3.10;2.30;;;24.40;99.90;;;;;;4180386;28;20219;-75
2022/08/23 01:11:37;;;;;;;3.17;1.98;;;24.40;99.90;;;;;;4180215;28;20220;-75
2022/08/23 01:13:45;;;;;;;3.00;2.20;;;24.40;99.90;;;;;;4179383;28;20633;-75
2022/08/23 01:15:50;;;;;;;3.47;2.15;;;24.40;99.90;;;;;;4175026;28;20601;-75
2022/08/23 01:18:01;;;;;;;3.53;1.95;;;24.40;99.90;;;;;;4180251;28;20216;-75
2022/08/23 01:20:08;;;;;;;4.22;2.20;;;24.40;99.90;;;;;;4180239;28;20273;-75
2022/08/23 01:22:21;;;;;;;2.47;1.90;;;24.30;99.90;;;;;;4180038;28;20235;-75
2022/08/23 01:24:25;;;;;;;3.13;2.03;;;24.30;99.90;;;;;;4179847;28;20223;-75
2022/08/23 01:26:30;;;;;;;3.85;2.10;;;24.40;99.90;;;;;;4180183;28;20227;-75
2022/08/23 01:28:33;;;;;;;3.90;1.77;;;24.30;99.90;;;;;;4180430;28;20273;-75
2022/08/23 01:30:37;;;;;;;4.93;2.22;;;24.40;99.90;;;;;;4176747;28;20220;-74
2022/08/23 01:32:45;;;;;;;2.85;1.83;;;24.40;99.90;;;;;;4179864;28;20281;-75
2022/08/23 01:34:47;;;;;;;3.65;1.98;;;24.30;99.90;;;;;;4180206;28;20206;-75
2022/08/23 01:36:49;;;;;;;3.53;2.00;;;24.40;99.90;;;;;;4180013;28;20292;-75
2022/08/23 01:38:52;;;;;;;3.97;2.45;;;24.30;99.90;;;;;;4180214;28;20270;-75
2022/08/23 01:40:56;;;;;;;2.90;2.38;;;24.30;99.90;;;;;;4180399;28;20224;-75
2022/08/23 01:42:59;;;;;;;3.33;2.20;;;24.30;99.90;;;;;;4179907;28;20293;-74
2022/08/23 01:45:02;;;;;;;4.05;2.25;;;24.30;99.90;;;;;;4179802;28;20220;-74
2022/08/23 01:47:05;;;;;;;4.55;2.50;;;24.30;99.90;;;;;;4178795;28;20224;-75
2022/08/23 01:49:07;;;;;;;3.05;2.20;;;24.30;99.90;;;;;;4179125;28;20220;-75
2022/08/23 01:51:09;;;;;;;3.17;2.17;;;24.30;99.90;;;;;;4179975;28;20277;-75
2022/08/23 01:53:13;;;;;;;3.53;2.15;;;24.30;99.90;;;;;;4179717;28;20632;-75
2022/08/23 01:55:16;;;;;;;2.80;2.35;;;24.30;99.90;;;;;;4166765;28;20238;-75
2022/08/23 01:57:19;;;;;;;3.25;2.20;;;24.40;99.90;;;;;;4179791;28;20645;-75
2022/08/23 01:59:23;;;;;;;3.25;2.20;;;24.30;99.90;;;;;;4179856;28;20216;-75
2022/08/23 02:01:25;;;;;;;3.40;2.10;;;24.30;99.90;;;;;;4179371;28;20208;-75
2022/08/23 02:03:28;;;;;;;4.43;2.22;;;24.30;99.90;;;;;;4179755;28;20244;-74
2022/08/23 02:05:31;;;;;;;3.97;2.20;;;24.30;99.90;;;;;;4177880;28;20235;-75
2022/08/23 02:07:33;;;;;;;3.15;2.03;;;24.30;99.90;;;;;;4175283;28;20216;-75
2022/08/23 02:09:35;;;;;;;3.15;2.22;;;24.30;99.90;;;;;;4170866;28;20726;-75
2022/08/23 02:11:39;;;;;;;2.55;1.90;;;24.30;99.90;;;;;;4179994;28;20299;-74
2022/08/23 02:13:44;;;;;;;3.53;2.13;;;24.30;99.90;;;;;;4179209;28;20211;-75
2022/08/23 02:15:50;;;;;;;5.05;2.47;;;24.30;99.90;;;;;;4177329;28;20273;-75
2022/08/23 02:17:54;;;;;;;3.78;2.10;;;24.20;99.90;;;;;;4178875;28;20637;-74
2022/08/23 02:19:56;;;;;;;3.70;2.35;;;24.30;99.90;;;;;;4179289;28;20216;-75
2022/08/23 02:21:59;;;;;;;3.83;2.55;;;24.20;99.90;;;;;;4170077;28;20277;-74
2022/08/23 02:24:05;;;;;;;3.15;2.20;;;24.20;99.90;;;;;;4172561;28;20239;-75
2022/08/23 02:26:08;;;;;;;3.75;2.47;;;24.30;99.90;;;;;;4179602;28;20242;-75
2022/08/23 02:28:10;;;;;;;2.60;2.33;;;24.20;99.90;;;;;;4179130;28;20216;-75
2022/08/23 02:30:14;;;;;;;3.28;1.80;;;24.30;99.90;;;;;;4178012;28;20215;-75
2022/08/23 02:32:18;;;;;;;5.70;2.50;;;24.20;99.90;;;;;;4174368;28;20262;-75
2022/08/23 02:34:20;;;;;;;4.25;2.38;;;24.20;99.90;;;;;;4179382;28;20300;-75
2022/08/23 02:36:23;;;;;;;3.53;2.30;;;24.20;99.90;;;;;;4178823;28;20609;-75
2022/08/23 02:38:25;;;;;;;6.35;2.15;;;24.20;99.90;;;;;;4179220;28;20640;-75
2022/08/23 02:40:27;;;;;;;3.78;2.38;;;24.30;99.90;;;;;;4179133;28;20284;-75
2022/08/23 02:42:29;;;;;;;2.22;1.98;;;24.20;99.90;;;;;;4179187;28;20659;-75
2022/08/23 02:44:33;;;;;;;3.97;2.30;;;24.20;99.90;;;;;;4177954;28;20281;-75
2022/08/23 02:46:37;;;;;;;2.53;2.20;;;24.20;99.90;;;;;;4178843;28;20219;-75
2022/08/23 02:48:39;;;;;;;3.53;2.53;;;24.20;99.90;;;;;;4170266;28;20262;-74
2022/08/23 02:50:42;;;;;;;1.90;1.70;;;24.20;99.90;;;;;;4177447;28;20224;-75
2022/08/23 02:52:44;;;;;;;3.08;2.47;;;24.20;99.90;;;;;;4177128;28;20318;-75
2022/08/23 02:54:46;;;;;;;4.22;2.60;;;24.20;99.90;;;;;;4168602;28;20219;-75
2022/08/23 02:56:48;;;;;;;2.83;2.20;;;24.20;99.90;;;;;;4176474;28;20227;-75
2022/08/23 02:58:52;;;;;;;4.63;1.75;;;24.20;99.90;;;;;;4178853;28;20246;-75
2022/08/23 03:00:54;;;;;;;4.05;2.10;;;24.20;99.90;;;;;;4177530;28;20223;-74
2022/08/23 03:02:58;;;;;;;3.42;2.10;;;24.20;99.90;;;;;;4178606;28;20239;-75
2022/08/23 03:05:01;;;;;;;4.70;2.00;;;24.20;99.90;;;;;;4178474;28;20285;-75
2022/08/23 03:07:03;;;;;;;3.60;2.17;;;24.20;99.90;;;;;;4178580;28;20285;-75
2022/08/23 03:09:07;;;;;;;2.85;2.30;;;24.10;99.90;;;;;;4176864;28;20220;-75
2022/08/23 03:11:12;;;;;;;4.32;2.03;;;24.10;99.90;;;;;;4178546;28;20572;-74
2022/08/23 03:13:15;;;;;;;2.95;2.10;;;24.10;99.90;;;;;;4178410;28;20212;-74
2022/08/23 03:15:18;;;;;;;3.88;2.30;;;24.10;99.90;;;;;;4178151;28;20851;-75
2022/08/23 03:17:20;;;;;;;4.45;2.38;;;24.10;99.90;;;;;;4177296;28;20277;-75
2022/08/23 03:19:24;;;;;;;3.67;2.15;;;24.20;99.90;;;;;;4178530;28;20215;-75
2022/08/23 03:21:26;;;;;;;3.75;2.35;;;24.20;99.90;;;;;;4178945;28;20224;-75
2022/08/23 03:23:29;;;;;;;3.33;2.00;;;24.10;99.90;;;;;;4178297;28;20585;-75
2022/08/23 03:25:32;;;;;;;3.47;2.20;;;24.10;99.90;;;;;;4178592;28;20627;-75
2022/08/23 03:27:35;;;;;;;2.13;1.92;;;24.10;99.90;;;;;;4178169;28;20603;-75
2022/08/23 03:29:38;;;;;;;4.30;2.33;;;24.10;99.90;;;;;;4178131;28;20207;-74
2022/08/23 03:31:41;;;;;;;2.80;1.83;;;24.10;99.90;;;;;;4168580;28;20270;-75
2022/08/23 03:33:43;;;;;;;3.05;2.28;;;24.10;99.90;;;;;;4169251;28;20261;-74
2022/08/23 03:35:47;;;;;;;4.45;2.42;;;24.20;99.90;;;;;;4176166;28;20372;-75
2022/08/23 03:37:50;;;;;;;3.15;2.28;;;24.10;99.90;;;;;;4178398;28;20614;-75
2022/08/23 03:39:53;;;;;;;4.05;2.50;;;24.10;99.90;;;;;;4176135;28;20219;-75
2022/08/23 03:41:55;;;;;;;3.80;2.00;;;24.10;99.90;;;;;;4178401;28;20223;-75
2022/08/23 03:43:57;;;;;;;2.35;2.13;;;24.10;99.90;;;;;;4176918;28;20695;-75
2022/08/23 03:46:00;;;;;;;3.70;2.17;;;24.10;99.90;;;;;;4178169;28;20281;-75
2022/08/23 03:48:02;;;;;;;3.63;2.55;;;24.10;99.90;;;;;;4177784;28;20737;-75
2022/08/23 03:50:05;;;;;;;3.33;2.20;;;24.10;99.90;;;;;;4178110;28;20228;-75
2022/08/23 03:52:10;;;;;;;3.35;2.40;;;24.10;99.90;;;;;;4177927;28;20223;-75
2022/08/23 03:54:12;;;;;;;3.00;2.50;;;24.10;99.90;;;;;;4171516;28;20213;-75
2022/08/23 03:56:22;;;;;;;2.63;2.00;;;24.10;99.90;;;;;;4172766;28;20630;-75
2022/08/23 03:58:28;;;;;;;4.20;2.60;;;24.10;99.90;;;;;;4174567;28;20219;-75
2022/08/23 04:00:30;;;;;;;2.83;2.40;;;24.10;99.90;;;;;;4177999;28;20215;-75
2022/08/23 04:02:32;;;;;;;4.22;2.47;;;24.10;99.90;;;;;;4169341;28;20731;-75
2022/08/23 04:04:35;;;;;;;4.93;2.60;;;24.10;99.90;;;;;;4168182;28;20232;-74
2022/08/23 04:06:37;;;;;;;3.67;2.40;;;24.10;99.90;;;;;;4176492;28;20212;-75
2022/08/23 04:08:41;;;;;;;2.85;2.30;;;24.10;99.90;;;;;;4178110;28;20740;-75
2022/08/23 04:10:44;;;;;;;3.63;2.10;;;24.00;99.90;;;;;;4177653;28;20227;-75
2022/08/23 04:12:48;;;;;;;3.83;2.13;;;24.10;99.90;;;;;;4182623;28;20223;-75
2022/08/23 04:14:52;;;;;;;4.45;2.70;;;24.10;99.90;;;;;;4179336;28;20274;-75
2022/08/23 04:16:54;;;;;;;3.78;2.63;;;24.10;99.90;;;;;;4182789;28;20219;-75
2022/08/23 04:18:56;;;;;;;3.80;2.45;;;24.00;99.90;;;;;;4183349;28;20219;-75
2022/08/23 04:21:00;;;;;;;3.90;2.30;;;24.00;99.90;;;;;;4182325;28;20220;-74
2022/08/23 04:23:03;;;;;;;4.53;2.60;;;24.10;99.90;;;;;;4183426;28;20291;-75
2022/08/23 04:25:07;;;;;;;2.90;2.20;;;24.00;99.90;;;;;;4183073;28;20250;-75
2022/08/23 04:27:10;;;;;;;3.92;2.60;;;24.10;99.90;;;;;;4183456;28;20223;-75
2022/08/23 04:29:15;;;;;;;4.85;2.72;;;24.10;99.90;;;;;;4183193;28;20228;-75
2022/08/23 04:31:20;;;;;;;3.55;2.67;;;24.00;99.90;;;;;;4176723;28;20261;-75
2022/08/23 04:33:22;;;;;;;4.47;2.55;;;24.10;99.90;;;;;;4182605;28;20648;-75
2022/08/23 04:35:25;;;;;;;3.78;2.58;;;24.00;99.90;;;;;;4183250;28;20211;-75
2022/08/23 04:37:28;;;;;;;4.90;2.70;;;24.00;99.90;;;;;;4180957;28;20628;-75
2022/08/23 04:42:16;;;;;;;6.43;2.90;;;24.00;99.90;;;;;;4180706;28;20223;-75
2022/08/23 04:44:14;;;;;;;4.97;2.67;;;24.00;99.90;;;;;;4180748;28;20227;-75
2022/08/23 04:46:16;;;;;;;4.53;2.58;;;24.00;99.90;;;;;;4182971;28;20224;-75
2022/08/23 04:48:19;;;;;;;2.78;2.10;;;24.00;99.90;;;;;;4183240;28;20224;-75
2022/08/23 04:50:21;;;;;;;4.57;2.60;;;24.00;99.90;;;;;;4183278;28;20207;-75
2022/08/23 04:52:23;;;;;;;4.55;2.67;;;24.00;99.90;;;;;;4183038;28;20224;-75
2022/08/23 04:54:27;;;;;;;5.28;2.70;;;24.00;99.90;;;;;;4182867;28;20270;-75
2022/08/23 04:56:30;;;;;;;4.22;2.40;;;23.90;99.90;;;;;;4182520;28;20718;-75
2022/08/23 04:58:35;;;;;;;3.45;2.40;;;24.00;99.90;;;;;;4181180;28;20589;-75
2022/08/23 05:00:38;;;;;;;3.33;2.53;;;23.90;99.90;;;;;;4183192;28;20680;-75
2022/08/23 05:02:40;;;;;;;4.47;2.55;;;24.00;99.90;;;;;;4183302;28;20285;-75
2022/08/23 05:04:43;;;;;;;3.40;2.38;;;24.00;99.90;;;;;;4182901;28;20239;-75
2022/08/23 05:06:45;;;;;;;3.65;2.60;;;23.90;99.90;;;;;;4183218;28;20297;-75
2022/08/23 05:08:48;;;;;;;5.38;2.28;;;24.00;99.90;;;;;;4182966;28;20269;-75
2022/08/23 05:10:50;;;;;;;4.18;2.80;;;23.90;99.90;;;;;;4180122;28;20215;-75
2022/08/23 05:12:53;;;;;;;3.65;2.17;;;24.00;99.90;;;;;;4173439;28;20294;-74
2022/08/23 05:14:57;;;;;;;5.07;2.72;;;24.00;99.90;;;;;;4179155;28;20247;-74
2022/08/23 05:17:00;;;;;;;3.67;2.70;;;24.00;99.90;;;;;;4170851;28;20224;-74
2022/08/23 05:19:03;;;;;;;3.15;2.42;;;24.00;99.90;;;;;;4182915;28;20227;-74
2022/08/23 05:21:06;;;;;;;4.55;2.60;;;24.00;99.90;;;;;;4182168;28;20224;-74
2022/08/23 05:23:08;;;;;;;4.28;2.40;;;24.00;99.90;;;;;;4179473;28;20251;-74
2022/08/23 05:25:11;;;;;;;4.35;2.53;;;24.00;99.90;;;;;;4179854;28;20244;-74
2022/08/23 05:27:13;;;;;;;3.33;2.53;;;24.00;99.90;;;;;;4179604;28;20211;-74
2022/08/23 05:29:15;;;;;;;3.33;2.50;;;24.00;99.90;;;;;;4179732;28;20220;-74
2022/08/23 05:31:21;;;;;;;4.03;2.45;;;23.90;99.90;;;;;;4179912;28;20361;-74
2022/08/23 05:33:24;;;;;;;3.53;2.28;;;23.90;99.90;;;;;;4180564;28;20265;-74
2022/08/23 05:35:26;;;;;;;5.20;2.42;;;24.00;99.90;;;;;;4180124;28;20208;-74
2022/08/23 05:37:28;;;;;;;4.55;2.60;;;23.90;99.90;;;;;;4178604;28;20223;-74
2022/08/23 05:39:31;;;;;;;4.80;2.70;;;23.90;99.90;;;;;;4178889;28;20219;-73
2022/08/23 05:41:33;;;;;;;3.35;2.50;;;23.90;99.90;;;;;;4172988;28;20215;-74
2022/08/23 05:43:36;;;;;;;6.43;2.83;;;24.00;99.90;;;;;;4176212;28;20781;-74
2022/08/23 05:45:38;;;;;;;5.20;2.67;;;24.00;99.90;;;;;;4178665;28;20277;-74
2022/08/23 05:47:42;;;;;;;3.88;2.38;;;24.00;99.90;;;;;;4171985;28;20215;-74
2022/08/23 05:49:44;;;;;;;3.97;2.65;;;24.00;99.90;;;;;;4169071;28;20257;-74
2022/08/23 05:51:47;;;;;;;2.85;2.30;;;24.00;99.90;;;;;;4178886;28;20281;-74
2022/08/23 05:53:51;;;;;;;2.85;2.10;;;24.00;99.90;;;;;;4175967;28;20237;-74
2022/08/23 05:55:53;;;;;;;3.75;2.40;;;23.90;99.90;;;;;;4179406;28;20725;-74
2022/08/23 05:57:55;;;;;;;4.10;2.78;;;24.00;99.90;;;;;;4179929;28;20224;-74
2022/08/23 05:59:58;;;;;;;4.20;2.28;;;24.00;99.90;;;;;;4179680;28;20216;-74
2022/08/23 06:02:01;;;;;;;3.88;2.20;;;24.00;99.90;;;;;;4178231;28;20220;-74
2022/08/23 06:04:11;;;;;;;3.13;2.20;;;24.00;99.90;;;;;;4179042;28;20706;-74
2022/08/23 06:06:15;;;;;;;3.25;2.05;;;24.00;99.90;;;;;;4179543;28;20627;-74
2022/08/23 06:08:17;;;;;;;3.10;2.20;;;24.00;99.90;;;;;;4179438;28;20236;-74
2022/08/23 06:10:20;;;;;;;3.72;2.50;;;24.00;99.90;;;;;;4178931;28;20702;-74
2022/08/23 06:12:22;;;;;;;4.22;2.70;;;24.00;99.90;;;;;;4179016;28;20269;-74
2022/08/23 06:14:24;;;;;;;4.28;2.42;;;24.00;99.90;;;;;;4176453;28;20643;-74
2022/08/23 06:16:31;;;;;;;3.72;2.25;;;24.00;99.90;;;;;;4176336;28;20616;-74
2022/08/23 06:18:33;;;;;;;3.22;2.55;;;24.00;99.90;;;;;;4179978;28;20745;-74
2022/08/23 06:20:37;;;;;;;4.68;2.78;;;24.00;99.90;;;;;;4169740;28;20278;-73
2022/08/23 06:22:40;;;;;;;6.97;2.88;;;24.00;99.90;;;;;;4177196;28;20262;-74
2022/08/23 06:24:42;;;;;;;3.78;2.65;;;24.00;99.90;;;;;;4178952;28;20293;-74
2022/08/23 06:26:45;;;;;;;5.15;3.13;;;24.00;99.90;;;;;;4178027;28;20616;-74
2022/08/23 06:28:49;;;;;;;4.15;2.22;;;24.00;99.90;;;;;;4178355;28;20265;-74
2022/08/23 06:30:54;;;;;;;3.30;2.63;;;24.00;99.90;;;;;;4168151;28;20220;-74
2022/08/23 06:32:56;;;;;;;4.70;3.00;;;24.00;99.90;;;;;;4179296;28;20278;-74
2022/08/23 06:34:59;;;;;;;6.47;2.65;;;24.00;99.90;;;;;;4170181;28;20219;-74
2022/08/23 06:37:06;;;;;;;4.03;2.50;;;24.00;99.90;;;;;;4178412;28;20220;-74
2022/08/23 06:39:11;;;;;;;4.47;2.80;;;24.00;99.90;;;;;;4166358;28;20280;-74
2022/08/23 06:41:13;;;;;;;3.90;2.70;;;24.00;99.90;;;;;;4178572;28;20219;-74
2022/08/23 06:43:17;;;;;;;4.45;2.67;;;24.00;99.90;;;;;;4174251;28;20329;-74
2022/08/23 06:45:19;;;;;;;4.63;2.58;;;24.00;99.90;;;;;;4178599;28;20258;-74
2022/08/23 06:47:21;;;;;;;4.15;2.65;;;24.00;99.90;;;;;;4172770;28;20656;-74
2022/08/23 06:49:26;;;;;;;6.53;3.03;;;24.00;99.90;;;;;;4173677;28;20273;-74
2022/08/23 06:51:31;;;;;;;4.47;2.70;;;24.00;99.90;;;;;;4177268;28;20277;-74
2022/08/23 06:53:38;;;;;;;5.32;3.15;;;24.00;99.90;;;;;;4176421;28;20208;-74
2022/08/23 06:55:40;;;;;;;4.50;2.58;;;24.00;99.90;;;;;;4176542;28;20575;-74
2022/08/23 06:57:45;;;;;;;5.57;2.60;;;24.00;99.90;;;;;;4172763;28;20552;-74
2022/08/23 06:59:48;;;;;;;6.35;2.80;;;24.00;99.90;;;;;;4177808;28;20216;-74
2022/08/23 07:01:53;;;;;;;4.38;2.83;;;24.00;99.90;;;;;;4174923;28;20207;-74
2022/08/23 07:03:57;;;;;;;10.60;5.07;;;24.00;99.90;;;;;;4169746;28;20224;-71
2022/08/23 07:06:00;;;;;;;11.43;4.35;;;23.90;99.90;;;;;;4138053;28;20292;-72
2022/08/23 07:08:03;;;;;;;12.80;4.22;;;23.50;99.90;;;;;;4136461;28;20213;-71
2022/08/23 07:10:08;;;;;;;9.45;4.30;;;23.30;99.90;;;;;;4140457;28;20262;-72
2022/08/23 07:12:11;;;;;;;10.73;5.03;;;23.20;99.90;;;;;;4127341;28;20265;-72
2022/08/23 07:14:15;;;;;;;11.60;4.85;;;23.20;99.90;;;;;;4138669;28;20213;-72
2022/08/23 07:16:19;;;;;;;13.98;4.95;;;23.10;99.90;;;;;;4138067;28;20268;-72
2022/08/23 07:18:31;;;;;;;12.00;4.72;;;23.20;99.90;;;;;;4137677;28;20262;-72
2022/08/23 07:20:33;;;;;;;13.60;4.80;;;23.20;99.90;;;;;;4137963;28;20275;-72
2022/08/23 07:22:36;;;;;;;13.35;4.85;;;23.10;99.90;;;;;;4139704;28;20287;-73
2022/08/23 07:24:39;;;;;;;12.27;4.80;;;23.20;99.90;;;;;;4143371;28;20256;-73
2022/08/23 07:26:44;;;;;;;11.50;4.90;;;23.30;99.90;;;;;;4142407;28;20240;-72
2022/08/23 07:28:46;;;;;;;13.15;4.47;;;23.20;99.90;;;;;;4136740;28;20272;-72
2022/08/23 07:30:49;;;;;;;9.45;4.40;;;23.30;99.90;;;;;;4134843;28;20217;-72
2022/08/23 07:32:51;;;;;;;11.60;4.30;;;23.30;99.90;;;;;;4139392;28;20213;-73
2022/08/23 07:34:54;;;;;;;9.45;4.35;;;23.40;99.90;;;;;;4138134;28;20225;-72
2022/08/23 07:36:56;;;;;;;12.55;4.28;;;23.40;99.90;;;;;;4137642;28;20213;-72
2022/08/23 07:38:59;;;;;;;13.50;4.35;;;23.40;99.90;;;;;;4138928;28;20214;-72
2022/08/23 07:41:02;;;;;;;9.98;3.92;;;23.30;99.90;;;;;;4135752;28;20580;-73
2022/08/23 07:43:05;;;;;;;10.65;4.07;;;23.20;99.90;;;;;;4139114;28;20218;-74
2022/08/23 07:45:09;;;;;;;12.63;3.95;;;23.20;99.90;;;;;;4138547;28;20220;-74
2022/08/23 07:47:11;;;;;;;8.10;3.50;;;23.30;99.90;;;;;;4140362;28;20584;-72
2022/08/23 07:49:15;;;;;;;10.43;3.10;;;23.40;99.90;;;;;;4140664;28;20279;-72
2022/08/23 07:51:19;;;;;;;11.07;3.25;;;23.30;99.90;;;;;;4140261;28;20225;-71
2022/08/23 07:53:21;;;;;;;10.52;3.70;;;23.30;99.90;;;;;;4138248;28;20289;-72
2022/08/23 07:55:24;;;;;;;14.95;3.95;;;23.30;99.90;;;;;;4141086;28;20213;-73
2022/08/23 07:57:27;;;;;;;10.00;4.03;;;23.30;99.90;;;;;;4136916;28;20737;-73
2022/08/23 07:59:31;;;;;;;13.07;3.80;;;23.50;99.90;;;;;;4139279;28;20217;-72
2022/08/23 08:01:33;;;;;;;9.50;3.45;;;23.60;99.90;;;;;;4139892;28;20272;-72
2022/08/23 08:03:36;;;;;;;10.63;3.80;;;23.60;99.90;;;;;;4138163;28;20221;-73
2022/08/23 08:05:38;;;;;;;11.95;4.00;;;23.50;99.90;;;;;;4169300;28;20617;-73
2022/08/23 08:07:40;;;;;;;7.38;3.22;;;23.70;99.90;;;;;;4172775;28;20684;-72
2022/08/23 08:09:43;;;;;;;6.82;3.40;;;23.70;99.90;;;;;;4172915;28;20212;-72
2022/08/23 08:11:47;;;;;;;9.27;3.58;;;23.60;99.90;;;;;;4171820;28;20220;-73
2022/08/23 08:13:50;;;;;;;10.20;3.42;;;23.60;99.90;;;;;;4172948;28;20219;-72
2022/08/23 08:15:54;;;;;;;10.35;3.28;;;23.60;99.90;;;;;;4172998;28;20215;-73
2022/08/23 08:17:57;;;;;;;11.95;3.45;;;23.60;99.90;;;;;;4174850;28;20274;-73
2022/08/23 08:20:02;;;;;;;8.55;3.65;;;23.70;99.90;;;;;;4169354;28;20257;-73
2022/08/23 08:22:05;;;;;;;11.75;3.70;;;23.80;99.90;;;;;;4169753;28;20265;-72
2022/08/23 08:24:09;;;;;;;11.25;3.15;;;23.90;99.90;;;;;;4171813;28;20223;-74
2022/08/23 08:26:11;;;;;;;10.32;3.40;;;23.90;99.90;;;;;;4170233;28;20285;-73
2022/08/23 08:28:23;;;;;;;13.02;3.70;;;23.80;99.90;;;;;;4173396;28;20215;-74
2022/08/23 08:30:26;;;;;;;9.68;3.83;;;23.80;99.90;;;;;;4168668;28;20266;-75
2022/08/23 08:32:29;;;;;;;10.15;3.83;;;23.90;99.90;;;;;;4171920;28;20257;-74
2022/08/23 08:34:32;;;;;;;14.30;4.00;;;24.00;99.90;;;;;;4171201;28;20725;-74
2022/08/23 08:36:38;;;;;;;8.80;3.63;;;24.00;99.90;;;;;;4173409;28;20215;-74
2022/08/23 08:38:41;;;;;;;9.30;3.17;;;24.10;99.90;;;;;;4174032;28;20276;-73
2022/08/23 08:40:44;;;;;;;8.35;3.20;;;24.10;99.90;;;;;;4169522;28;20232;-72
2022/08/23 08:43:05;;;;;;;8.20;3.05;;;24.10;99.90;;;;;;4174345;28;20253;-73
2022/08/23 08:45:12;;;;;;;10.32;3.33;;;24.20;99.90;;;;;;4169554;28;20212;-73
2022/08/23 08:47:19;;;;;;;8.60;2.95;;;24.30;99.90;;;;;;4164887;28;20275;-72
2022/08/23 08:49:33;;;;;;;10.35;2.88;;;24.30;99.90;;;;;;4171773;28;20629;-72
2022/08/23 08:51:46;;;;;;;7.10;3.10;;;24.30;99.90;;;;;;4167293;28;21252;-72
2022/08/23 08:53:51;;;;;;;6.53;2.50;;;24.30;99.90;;;;;;4171142;28;20219;-73
2022/08/23 08:55:56;;;;;;;12.73;2.83;;;24.40;99.90;;;;;;4174365;28;20240;-73
2022/08/23 08:58:01;;;;;;;9.00;2.58;;;24.40;99.90;;;;;;4167882;28;20317;-73
2022/08/23 09:00:09;;;;;;;9.70;2.88;;;24.40;99.90;;;;;;4172714;28;20254;-72
2022/08/23 09:02:17;;;;;;;6.55;2.53;;;24.40;99.90;;;;;;4175141;28;20269;-77
2022/08/23 09:04:21;;;;;;;7.78;3.10;;;24.40;99.90;;;;;;4172391;28;20293;-75
2022/08/23 09:06:31;;;;;;;8.15;2.85;;;24.40;99.90;;;;;;4174349;28;20285;-78
2022/08/23 09:08:46;;;;;;;5.75;2.85;;;24.40;99.90;;;;;;4171624;28;20517;-71
2022/08/23 09:10:56;;;;;;;9.15;2.80;;;24.50;99.90;;;;;;4170898;28;20245;-72
2022/08/23 09:13:25;;;;;;;7.32;2.65;;;24.60;99.90;;;;;;4175646;28;20223;-73
2022/08/23 09:15:36;;;;;;;5.15;2.80;;;24.60;99.90;;;;;;4169984;28;20305;-72
2022/08/23 09:17:43;;;;;;;7.60;2.80;;;24.70;99.90;;;;;;4174785;28;20293;-74
2022/08/23 09:19:48;;;;;;;5.97;2.58;;;24.50;99.90;;;;;;4171046;28;20598;-72
2022/08/23 09:21:58;;;;;;;9.00;3.10;;;24.50;99.90;;;;;;4171800;28;20270;-74
2022/08/23 09:24:00;;;;;;;8.48;3.10;;;24.60;99.90;;;;;;4170535;28;20220;-73
2022/08/23 09:26:16;;;;;;;8.25;3.10;;;24.70;99.90;;;;;;4164533;28;21384;-73
2022/08/23 09:28:19;;;;;;;10.05;3.10;;;24.70;99.90;;;;;;4171906;28;20219;-72
2022/08/23 09:30:22;;;;;;;6.93;3.15;;;24.70;99.90;;;;;;4166348;28;20273;-72
2022/08/23 09:32:40;;;;;;;6.20;3.33;;;24.60;99.90;;;;;;4172063;28;20224;-73
2022/08/23 09:34:43;;;;;;;8.70;3.40;;;24.60;99.90;;;;;;4174340;28;20211;-73
2022/08/23 09:36:47;;;;;;;7.38;3.17;;;24.60;99.90;;;;;;4175489;28;20208;-76
2022/08/23 09:38:56;;;;;;;7.50;3.90;;;24.60;99.90;;;;;;4167214;28;20668;-77
2022/08/23 09:40:59;;;;;;;12.73;4.38;;;24.60;99.90;;;;;;4175118;28;20261;-78
2022/08/23 09:43:13;;;;;;;6.40;3.80;;;24.50;99.90;;;;;;4173705;28;20216;-75
2022/08/23 09:45:26;;;;;;;10.60;4.20;;;24.50;99.90;;;;;;4171191;28;20667;-74
2022/08/23 09:47:34;;;;;;;8.10;3.88;;;24.50;99.90;;;;;;4167502;28;20636;-75
2022/08/23 09:49:36;;;;;;;9.52;3.88;;;24.50;99.90;;;;;;4172516;28;20222;-75
2022/08/23 09:51:40;;;;;;;11.63;4.85;;;24.50;99.90;;;;;;4177094;28;20281;-77
2022/08/23 09:53:48;;;;;;;13.93;3.85;;;24.50;99.90;;;;;;4177427;28;20223;-75
2022/08/23 09:55:55;;;;;;;9.88;3.75;;;24.60;99.90;;;;;;4173712;28;20207;-76
2022/08/23 09:58:00;;;;;;;11.07;3.60;;;24.70;99.90;;;;;;4173142;28;20237;-76
2022/08/23 10:00:21;;;;;;;8.13;3.85;;;24.70;99.90;;;;;;4171168;28;20216;-78
2022/08/23 10:02:28;;;;;;;9.00;4.50;;;24.70;99.90;;;;;;4175103;28;20216;-75
2022/08/23 10:04:40;;;;;;;9.57;3.95;;;24.80;99.90;;;;;;4174325;28;20262;-76
2022/08/23 10:06:45;;;;;;;8.10;3.78;;;24.70;99.90;;;;;;4173266;28;20247;-78
2022/08/23 10:09:02;;;;;;;7.75;3.67;;;24.80;99.90;;;;;;4174119;28;20273;-79
2022/08/23 10:11:16;;;;;;;4.78;2.90;;;24.80;99.90;;;;;;4172496;28;20288;-76
2022/08/23 10:13:19;;;;;;;5.32;3.08;;;24.80;99.90;;;;;;4173945;28;20276;-75
2022/08/23 10:15:44;;;;;;;4.93;2.75;;;24.80;99.90;;;;;;4172329;28;20220;-79
2022/08/23 10:17:54;;;;;;;5.93;2.70;;;24.80;99.90;;;;;;4168032;28;20591;-76
2022/08/23 10:20:10;;;;;;;5.88;2.50;;;24.80;99.90;;;;;;4168938;28;20216;-75
2022/08/23 10:22:18;;;;;;;3.42;2.08;;;24.90;99.90;;;;;;4169219;28;20227;-76
2022/08/23 10:24:29;;;;;;;6.57;2.20;;;24.90;99.90;;;;;;4173707;28;20288;-78
2022/08/23 10:26:35;;;;;;;6.20;2.40;;;24.90;99.90;;;;;;4173830;28;20273;-76
2022/08/23 10:31:15;;;;;;;4.70;2.20;;;25.00;99.90;;;;;;4169330;28;20188;-76
2022/08/23 10:33:24;;;;;;;5.60;2.00;;;25.00;99.90;;;;;;4173232;28;20277;-77
2022/08/23 10:35:31;;;;;;;4.70;1.77;;;25.00;99.90;;;;;;4170842;28;20276;-77
2022/08/23 10:37:54;;;;;;;4.40;2.10;;;25.10;99.90;;;;;;4176890;28;20288;-80
2022/08/23 10:40:01;;;;;;;6.22;1.60;;;25.10;99.90;;;;;;4173477;28;20212;-81
2022/08/23 10:42:11;;;;;;;5.32;1.55;;;25.20;99.90;;;;;;4171272;28;20212;-80
2022/08/23 10:44:24;;;;;;;4.90;1.63;;;25.30;99.90;;;;;;4171543;28;21859;-80
2022/08/23 10:46:31;;;;;;;4.15;1.40;;;25.30;99.90;;;;;;4173397;28;20277;-80
2022/08/23 10:48:37;;;;;;;2.83;1.58;;;25.40;99.90;;;;;;4169031;28;20228;-76
2022/08/23 10:50:44;;;;;;;6.35;1.67;;;25.40;99.90;;;;;;4170012;28;20614;-78
2022/08/23 10:52:54;;;;;;;3.63;1.60;;;25.40;99.90;;;;;;4171601;28;20265;-77
2022/08/23 10:55:15;;;;;;;4.50;1.50;;;25.40;99.90;;;;;;4163182;28;20219;-77
2022/08/23 10:57:20;;;;;;;4.03;1.08;;;25.40;99.90;;;;;;4166764;28;20472;-78